Boyntonville, New York
Current Conditions -  °F | °C
As of 7:06 PM on Monday 22 Dec 2014 (Local Time) from KDDH Reporting Station
Overcast Overcast  
Wind Chill:   Ceiling: 4500
Heat Index:   Visibility: 10mi
Dew Point: -1°   Wind: 8mph
Humidity: 76%   Direction: 110°ESE
Pressure: 30.25"   Gusts: NA
Location:  42.8782°N, 73.3625°W
Report Text: KDDH 230006Z AUTO 11007KT 10SM SCT019 OVC045 03/M01 A3025 RMK AO2 T00331006
Loading
Personal Weather Stations






























Interactive Weather Map New forecast layout! Learn more

10-Day Weather Forecast

Advertisements
Track Severe Weather on mobile